sensor_id;sensor_type;location;lat;lon;timestamp;pressure;altitude;pressure_sealevel;temperature;humidity
63097;BME280;49185;42.320;23.198;2023-02-19T00:00:06;95283.88;;;2.63;70.02
63097;BME280;49185;42.320;23.198;2023-02-19T00:02:31;95282.31;;;2.17;71.84
63097;BME280;49185;42.320;23.198;2023-02-19T00:04:56;95282.97;;;2.04;72.71
63097;BME280;49185;42.320;23.198;2023-02-19T00:07:22;95283.13;;;1.73;73.90
63097;BME280;49185;42.320;23.198;2023-02-19T00:09:47;95287.09;;;1.69;74.66
63097;BME280;49185;42.320;23.198;2023-02-19T00:12:13;95282.94;;;1.60;75.15
63097;BME280;49185;42.320;23.198;2023-02-19T00:14:38;95287.75;;;1.86;74.66
63097;BME280;49185;42.320;23.198;2023-02-19T00:17:03;95297.97;;;2.25;72.45
63097;BME280;49185;42.320;23.198;2023-02-19T00:19:29;95287.47;;;2.11;72.98
63097;BME280;49185;42.320;23.198;2023-02-19T00:21:57;95288.75;;;2.15;72.26
63097;BME280;49185;42.320;23.198;2023-02-19T00:24:22;95283.78;;;2.05;72.33
63097;BME280;49185;42.320;23.198;2023-02-19T00:26:48;95283.06;;;1.81;73.92
63097;BME280;49185;42.320;23.198;2023-02-19T00:29:19;95281.97;;;1.90;73.54
63097;BME280;49185;42.320;23.198;2023-02-19T00:31:45;95293.97;;;1.55;74.03
63097;BME280;49185;42.320;23.198;2023-02-19T00:34:12;95282.09;;;1.06;76.26
63097;BME280;49185;42.320;23.198;2023-02-19T00:36:39;95285.28;;;0.93;77.10
63097;BME280;49185;42.320;23.198;2023-02-19T00:39:06;95280.59;;;1.27;76.34
63097;BME280;49185;42.320;23.198;2023-02-19T00:41:32;95279.91;;;1.33;75.97
63097;BME280;49185;42.320;23.198;2023-02-19T00:44:04;95275.66;;;1.32;75.59
63097;BME280;49185;42.320;23.198;2023-02-19T00:46:42;95274.03;;;1.08;76.12
63097;BME280;49185;42.320;23.198;2023-02-19T00:49:14;95276.28;;;0.96;77.16
63097;BME280;49185;42.320;23.198;2023-02-19T00:51:40;95283.13;;;0.97;77.34
63097;BME280;49185;42.320;23.198;2023-02-19T00:54:05;95278.75;;;1.12;76.91
63097;BME280;49185;42.320;23.198;2023-02-19T00:56:31;95263.47;;;1.01;77.32
63097;BME280;49185;42.320;23.198;2023-02-19T00:58:56;95270.44;;;1.09;77.72
63097;BME280;49185;42.320;23.198;2023-02-19T01:01:22;95261.06;;;1.67;75.15
63097;BME280;49185;42.320;23.198;2023-02-19T01:03:48;95257.06;;;1.71;74.28
63097;BME280;49185;42.320;23.198;2023-02-19T01:06:15;95247.78;;;1.31;76.01
63097;BME280;49185;42.320;23.198;2023-02-19T01:08:41;95258.31;;;1.08;77.43
63097;BME280;49185;42.320;23.198;2023-02-19T01:11:07;95252.88;;;0.94;78.32
63097;BME280;49185;42.320;23.198;2023-02-19T01:13:33;95247.97;;;0.91;78.72
63097;BME280;49185;42.320;23.198;2023-02-19T01:16:09;95241.50;;;1.02;78.62
63097;BME280;49185;42.320;23.198;2023-02-19T01:18:36;95246.88;;;0.86;78.61
63097;BME280;49185;42.320;23.198;2023-02-19T01:21:11;95243.63;;;0.84;79.23
63097;BME280;49185;42.320;23.198;2023-02-19T01:23:37;95242.38;;;1.18;77.93
63097;BME280;49185;42.320;23.198;2023-02-19T01:26:07;95252.16;;;0.78;79.21
63097;BME280;49185;42.320;23.198;2023-02-19T01:28:33;95245.47;;;0.75;79.81
63097;BME280;49185;42.320;23.198;2023-02-19T01:31:01;95246.81;;;0.94;79.78
63097;BME280;49185;42.320;23.198;2023-02-19T01:33:26;95240.38;;;1.35;77.40
63097;BME280;49185;42.320;23.198;2023-02-19T01:35:52;95232.63;;;1.26;77.24
63097;BME280;49185;42.320;23.198;2023-02-19T01:38:17;95225.84;;;1.32;76.79
63097;BME280;49185;42.320;23.198;2023-02-19T01:40:43;95244.41;;;1.60;75.26
63097;BME280;49185;42.320;23.198;2023-02-19T01:43:14;95245.22;;;1.46;75.05
63097;BME280;49185;42.320;23.198;2023-02-19T01:45:42;95245.50;;;1.51;74.88
63097;BME280;49185;42.320;23.198;2023-02-19T01:48:12;95240.88;;;1.38;75.43
63097;BME280;49185;42.320;23.198;2023-02-19T01:50:46;95235.03;;;0.90;77.47
63097;BME280;49185;42.320;23.198;2023-02-19T01:53:16;95229.97;;;0.88;78.58
63097;BME280;49185;42.320;23.198;2023-02-19T01:55:45;95245.03;;;1.09;77.67
63097;BME280;49185;42.320;23.198;2023-02-19T01:58:14;95239.34;;;1.06;77.21
63097;BME280;49185;42.320;23.198;2023-02-19T02:00:39;95238.13;;;0.93;77.80
63097;BME280;49185;42.320;23.198;2023-02-19T02:03:05;95246.22;;;1.07;77.74
63097;BME280;49185;42.320;23.198;2023-02-19T02:05:41;95240.91;;;0.92;78.58
63097;BME280;49185;42.320;23.198;2023-02-19T02:08:08;95254.28;;;0.82;78.52
63097;BME280;49185;42.320;23.198;2023-02-19T02:10:34;95244.22;;;0.71;79.29
63097;BME280;49185;42.320;23.198;2023-02-19T02:12:59;95247.25;;;1.74;74.94
63097;BME280;49185;42.320;23.198;2023-02-19T02:16:23;95243.13;;;1.41;75.39
63097;BME280;49185;42.320;23.198;2023-02-19T02:26:29;95262.66;;;1.54;76.35
63097;BME280;49185;42.320;23.198;2023-02-19T02:29:25;95267.06;;;1.00;78.09
63097;BME280;49185;42.320;23.198;2023-02-19T02:32:15;95271.34;;;0.47;79.42
63097;BME280;49185;42.320;23.198;2023-02-19T02:34:51;95269.16;;;0.27;79.28
63097;BME280;49185;42.320;23.198;2023-02-19T02:37:18;95279.75;;;-0.06;81.07
63097;BME280;49185;42.320;23.198;2023-02-19T02:39:44;95280.97;;;0.78;79.11
63097;BME280;49185;42.320;23.198;2023-02-19T02:42:11;95280.78;;;0.56;78.79
63097;BME280;49185;42.320;23.198;2023-02-19T02:44:41;95281.13;;;0.22;81.10
63097;BME280;49185;42.320;23.198;2023-02-19T02:47:09;95272.81;;;0.10;81.96
63097;BME280;49185;42.320;23.198;2023-02-19T02:49:35;95270.53;;;0.07;81.35
63097;BME280;49185;42.320;23.198;2023-02-19T02:52:01;95268.50;;;-0.14;83.46
63097;BME280;49185;42.320;23.198;2023-02-19T02:54:29;95279.03;;;0.09;83.04
63097;BME280;49185;42.320;23.198;2023-02-19T02:56:57;95280.88;;;0.00;82.59
63097;BME280;49185;42.320;23.198;2023-02-19T02:59:25;95287.94;;;-0.09;82.84
63097;BME280;49185;42.320;23.198;2023-02-19T03:08:14;95282.25;;;0.59;80.30
63097;BME280;49185;42.320;23.198;2023-02-19T03:11:03;95283.81;;;0.36;81.27
63097;BME280;49185;42.320;23.198;2023-02-19T03:13:33;95289.19;;;0.43;81.41
63097;BME280;49185;42.320;23.198;2023-02-19T03:16:07;95287.50;;;0.59;80.88
63097;BME280;49185;42.320;23.198;2023-02-19T03:18:35;95288.97;;;0.53;80.28
63097;BME280;49185;42.320;23.198;2023-02-19T03:21:03;95294.16;;;0.61;80.40
63097;BME280;49185;42.320;23.198;2023-02-19T03:23:32;95295.06;;;0.77;79.80
63097;BME280;49185;42.320;23.198;2023-02-19T03:25:58;95294.94;;;0.93;79.04
63097;BME280;49185;42.320;23.198;2023-02-19T03:28:27;95292.97;;;0.72;79.34
63097;BME280;49185;42.320;23.198;2023-02-19T03:30:54;95293.75;;;0.72;79.64
63097;BME280;49185;42.320;23.198;2023-02-19T03:33:26;95301.22;;;0.61;80.48
63097;BME280;49185;42.320;23.198;2023-02-19T03:35:59;95288.53;;;0.95;78.21
63097;BME280;49185;42.320;23.198;2023-02-19T03:46:28;95300.00;;;1.18;77.68
63097;BME280;49185;42.320;23.198;2023-02-19T03:49:17;95300.28;;;1.46;76.76
63097;BME280;49185;42.320;23.198;2023-02-19T03:52:52;95300.09;;;1.47;75.26
63097;BME280;49185;42.320;23.198;2023-02-19T03:59:53;95296.44;;;-0.07;81.16
63097;BME280;49185;42.320;23.198;2023-02-19T04:02:34;95300.88;;;-0.15;82.52
63097;BME280;49185;42.320;23.198;2023-02-19T04:05:08;95298.38;;;-0.01;80.76
63097;BME280;49185;42.320;23.198;2023-02-19T04:07:38;95307.91;;;-0.32;81.77
63097;BME280;49185;42.320;23.198;2023-02-19T04:10:06;95309.63;;;-0.72;83.80
63097;BME280;49185;42.320;23.198;2023-02-19T04:12:35;95329.38;;;-0.70;84.44
63097;BME280;49185;42.320;23.198;2023-02-19T04:15:09;95312.41;;;-0.74;85.53
63097;BME280;49185;42.320;23.198;2023-02-19T04:17:44;95318.44;;;-0.73;84.86
63097;BME280;49185;42.320;23.198;2023-02-19T04:20:12;95325.28;;;0.16;82.05
63097;BME280;49185;42.320;23.198;2023-02-19T04:22:39;95322.53;;;0.49;78.77
63097;BME280;49185;42.320;23.198;2023-02-19T04:25:07;95318.22;;;-0.31;80.68
63097;BME280;49185;42.320;23.198;2023-02-19T04:27:40;95322.84;;;0.07;80.81
63097;BME280;49185;42.320;23.198;2023-02-19T04:30:10;95319.09;;;-0.63;82.09
63097;BME280;49185;42.320;23.198;2023-02-19T04:32:36;95321.69;;;-0.71;83.94
63097;BME280;49185;42.320;23.198;2023-02-19T04:35:02;95321.50;;;-1.03;84.59
63097;BME280;49185;42.320;23.198;2023-02-19T04:37:27;95321.63;;;-1.37;86.05
63097;BME280;49185;42.320;23.198;2023-02-19T04:39:52;95319.81;;;-1.37;86.63
63097;BME280;49185;42.320;23.198;2023-02-19T04:42:18;95318.63;;;-1.59;86.74
63097;BME280;49185;42.320;23.198;2023-02-19T04:44:43;95324.94;;;-1.02;85.44
63097;BME280;49185;42.320;23.198;2023-02-19T04:47:09;95327.31;;;-1.42;86.58
63097;BME280;49185;42.320;23.198;2023-02-19T04:49:34;95330.03;;;-1.60;87.07
63097;BME280;49185;42.320;23.198;2023-02-19T04:51:59;95329.25;;;-1.44;88.17
63097;BME280;49185;42.320;23.198;2023-02-19T04:54:25;95331.13;;;-0.38;83.05
63097;BME280;49185;42.320;23.198;2023-02-19T04:56:51;95326.41;;;-0.59;82.70
63097;BME280;49185;42.320;23.198;2023-02-19T04:59:16;95323.47;;;-1.13;84.57
63097;BME280;49185;42.320;23.198;2023-02-19T05:01:42;95327.88;;;-0.89;83.95
63097;BME280;49185;42.320;23.198;2023-02-19T05:04:07;95329.47;;;-1.21;85.49
63097;BME280;49185;42.320;23.198;2023-02-19T05:06:33;95333.22;;;-1.31;86.79
63097;BME280;49185;42.320;23.198;2023-02-19T05:08:58;95324.59;;;-1.16;86.75
63097;BME280;49185;42.320;23.198;2023-02-19T05:11:24;95338.50;;;-1.15;86.39
63097;BME280;49185;42.320;23.198;2023-02-19T05:13:49;95335.56;;;-1.04;86.49
63097;BME280;49185;42.320;23.198;2023-02-19T05:16:15;95333.91;;;-1.13;86.79
63097;BME280;49185;42.320;23.198;2023-02-19T05:18:42;95335.38;;;-1.10;86.68
63097;BME280;49185;42.320;23.198;2023-02-19T05:21:08;95337.34;;;-1.04;86.52
63097;BME280;49185;42.320;23.198;2023-02-19T05:23:34;95341.94;;;-0.49;85.44
63097;BME280;49185;42.320;23.198;2023-02-19T05:26:05;95348.78;;;-0.31;83.11
63097;BME280;49185;42.320;23.198;2023-02-19T05:28:30;95349.06;;;-0.10;81.81
63097;BME280;49185;42.320;23.198;2023-02-19T05:30:56;95352.06;;;-0.70;84.04
63097;BME280;49185;42.320;23.198;2023-02-19T05:33:23;95356.47;;;-0.63;83.94
63097;BME280;49185;42.320;23.198;2023-02-19T05:35:52;95357.91;;;-0.35;83.53
63097;BME280;49185;42.320;23.198;2023-02-19T05:38:18;95361.09;;;0.16;80.32
63097;BME280;49185;42.320;23.198;2023-02-19T05:40:45;95367.88;;;-0.39;82.35
63097;BME280;49185;42.320;23.198;2023-02-19T05:43:11;95372.75;;;-0.20;82.98
63097;BME280;49185;42.320;23.198;2023-02-19T05:45:37;95377.66;;;-0.16;81.52
63097;BME280;49185;42.320;23.198;2023-02-19T05:48:05;95378.63;;;-0.09;82.20
63097;BME280;49185;42.320;23.198;2023-02-19T05:50:32;95376.91;;;0.39;80.99
63097;BME280;49185;42.320;23.198;2023-02-19T05:52:59;95374.47;;;0.21;80.51
63097;BME280;49185;42.320;23.198;2023-02-19T05:55:25;95377.06;;;0.77;78.21
63097;BME280;49185;42.320;23.198;2023-02-19T05:57:50;95383.69;;;0.56;79.09
63097;BME280;49185;42.320;23.198;2023-02-19T06:00:17;95397.63;;;0.49;79.48
63097;BME280;49185;42.320;23.198;2023-02-19T06:02:43;95382.81;;;0.33;80.77
63097;BME280;49185;42.320;23.198;2023-02-19T06:05:09;95396.16;;;0.86;79.70
63097;BME280;49185;42.320;23.198;2023-02-19T06:07:35;95393.19;;;1.43;76.88
63097;BME280;49185;42.320;23.198;2023-02-19T06:10:01;95387.19;;;1.35;76.76
63097;BME280;49185;42.320;23.198;2023-02-19T06:12:26;95402.06;;;1.80;75.94
63097;BME280;49185;42.320;23.198;2023-02-19T06:14:52;95399.56;;;1.87;74.45
63097;BME280;49185;42.320;23.198;2023-02-19T06:17:17;95393.06;;;1.83;75.27
63097;BME280;49185;42.320;23.198;2023-02-19T06:19:43;95395.06;;;3.00;70.36
63097;BME280;49185;42.320;23.198;2023-02-19T06:22:09;95388.78;;;3.01;69.59
63097;BME280;49185;42.320;23.198;2023-02-19T06:24:34;95400.28;;;3.15;69.04
63097;BME280;49185;42.320;23.198;2023-02-19T06:27:00;95399.63;;;2.32;71.70
63097;BME280;49185;42.320;23.198;2023-02-19T06:29:26;95409.97;;;2.48;72.46
63097;BME280;49185;42.320;23.198;2023-02-19T06:31:51;95404.53;;;2.64;71.96
63097;BME280;49185;42.320;23.198;2023-02-19T06:34:16;95396.56;;;3.24;70.99
63097;BME280;49185;42.320;23.198;2023-02-19T06:36:42;95397.03;;;3.34;69.50
63097;BME280;49185;42.320;23.198;2023-02-19T06:39:08;95403.00;;;3.65;68.41
63097;BME280;49185;42.320;23.198;2023-02-19T06:41:34;95396.34;;;3.90;68.13
63097;BME280;49185;42.320;23.198;2023-02-19T06:44:00;95398.28;;;4.66;65.91
63097;BME280;49185;42.320;23.198;2023-02-19T06:46:25;95399.53;;;5.25;63.39
63097;BME280;49185;42.320;23.198;2023-02-19T06:48:51;95395.16;;;5.73;61.38
63097;BME280;49185;42.320;23.198;2023-02-19T06:51:18;95385.19;;;6.61;58.88
63097;BME280;49185;42.320;23.198;2023-02-19T06:53:44;95396.63;;;6.35;58.71
63097;BME280;49185;42.320;23.198;2023-02-19T06:56:31;95382.16;;;8.12;53.78
63097;BME280;49185;42.320;23.198;2023-02-19T06:58:59;95380.50;;;9.35;51.61
63097;BME280;49185;42.320;23.198;2023-02-19T07:01:25;95379.72;;;10.66;47.93
63097;BME280;49185;42.320;23.198;2023-02-19T07:03:51;95378.03;;;11.41;46.47
63097;BME280;49185;42.320;23.198;2023-02-19T07:06:18;95379.91;;;10.88;48.07
63097;BME280;49185;42.320;23.198;2023-02-19T07:08:43;95382.59;;;10.64;49.05
63097;BME280;49185;42.320;23.198;2023-02-19T07:11:09;95367.59;;;11.51;45.60
63097;BME280;49185;42.320;23.198;2023-02-19T07:13:35;95364.09;;;10.70;46.74
63097;BME280;49185;42.320;23.198;2023-02-19T07:16:04;95367.81;;;10.45;47.48
63097;BME280;49185;42.320;23.198;2023-02-19T07:18:30;95369.72;;;10.85;45.88
63097;BME280;49185;42.320;23.198;2023-02-19T07:21:12;95379.81;;;11.35;45.20
63097;BME280;49185;42.320;23.198;2023-02-19T07:23:39;95384.03;;;11.08;45.01
63097;BME280;49185;42.320;23.198;2023-02-19T07:26:08;95388.47;;;8.61;51.56
63097;BME280;49185;42.320;23.198;2023-02-19T07:28:34;95386.44;;;7.17;55.68
63097;BME280;49185;42.320;23.198;2023-02-19T07:31:01;95383.97;;;7.22;56.79
63097;BME280;49185;42.320;23.198;2023-02-19T07:33:27;95387.69;;;7.47;55.43
63097;BME280;49185;42.320;23.198;2023-02-19T07:35:53;95386.47;;;10.03;48.92
63097;BME280;49185;42.320;23.198;2023-02-19T07:38:20;95383.84;;;9.12;52.00
63097;BME280;49185;42.320;23.198;2023-02-19T07:40:59;95384.06;;;9.71;49.67
63097;BME280;49185;42.320;23.198;2023-02-19T07:43:28;95379.50;;;9.48;50.90
63097;BME280;49185;42.320;23.198;2023-02-19T07:45:55;95382.56;;;9.33;51.83
63097;BME280;49185;42.320;23.198;2023-02-19T07:48:20;95380.47;;;8.68;53.45
63097;BME280;49185;42.320;23.198;2023-02-19T07:50:57;95378.44;;;8.63;52.41
63097;BME280;49185;42.320;23.198;2023-02-19T07:53:24;95379.44;;;9.36;49.69
63097;BME280;49185;42.320;23.198;2023-02-19T07:55:49;95380.50;;;9.35;50.02
63097;BME280;49185;42.320;23.198;2023-02-19T07:58:15;95372.31;;;9.48;50.32
63097;BME280;49185;42.320;23.198;2023-02-19T08:00:41;95372.06;;;10.58;46.89
63097;BME280;49185;42.320;23.198;2023-02-19T08:03:07;95371.88;;;9.52;49.82
63097;BME280;49185;42.320;23.198;2023-02-19T08:05:36;95368.28;;;8.97;51.78
63097;BME280;49185;42.320;23.198;2023-02-19T08:08:05;95369.47;;;8.83;51.73
63097;BME280;49185;42.320;23.198;2023-02-19T08:10:30;95361.16;;;8.61;52.04
63097;BME280;49185;42.320;23.198;2023-02-19T08:12:59;95362.06;;;9.52;50.30
63097;BME280;49185;42.320;23.198;2023-02-19T08:15:25;95355.78;;;10.54;46.83
63097;BME280;49185;42.320;23.198;2023-02-19T08:17:50;95349.94;;;10.93;46.22
63097;BME280;49185;42.320;23.198;2023-02-19T08:20:16;95349.53;;;11.42;43.94
63097;BME280;49185;42.320;23.198;2023-02-19T08:22:41;95350.50;;;11.07;45.55
63097;BME280;49185;42.320;23.198;2023-02-19T08:25:07;95348.19;;;13.14;40.50
63097;BME280;49185;42.320;23.198;2023-02-19T08:27:33;95352.44;;;13.32;40.54
63097;BME280;49185;42.320;23.198;2023-02-19T08:29:58;95352.31;;;11.47;43.37
63097;BME280;49185;42.320;23.198;2023-02-19T08:32:23;95351.81;;;12.63;42.85
63097;BME280;49185;42.320;23.198;2023-02-19T08:34:49;95354.50;;;12.46;43.11
63097;BME280;49185;42.320;23.198;2023-02-19T08:37:14;95359.34;;;14.09;39.27
63097;BME280;49185;42.320;23.198;2023-02-19T08:39:40;95353.84;;;13.39;39.69
63097;BME280;49185;42.320;23.198;2023-02-19T08:42:05;95343.97;;;14.64;37.33
63097;BME280;49185;42.320;23.198;2023-02-19T08:44:31;95341.56;;;13.65;40.46
63097;BME280;49185;42.320;23.198;2023-02-19T08:46:57;95341.19;;;13.84;39.18
63097;BME280;49185;42.320;23.198;2023-02-19T08:49:25;95349.66;;;14.73;38.53
63097;BME280;49185;42.320;23.198;2023-02-19T08:51:50;95333.19;;;14.54;38.88
63097;BME280;49185;42.320;23.198;2023-02-19T08:54:16;95334.94;;;15.44;36.37
63097;BME280;49185;42.320;23.198;2023-02-19T08:56:41;95334.53;;;14.56;36.79
63097;BME280;49185;42.320;23.198;2023-02-19T08:59:07;95334.66;;;14.39;38.25
63097;BME280;49185;42.320;23.198;2023-02-19T09:01:32;95327.00;;;14.53;37.73
63097;BME280;49185;42.320;23.198;2023-02-19T09:03:58;95321.88;;;15.68;34.96
63097;BME280;49185;42.320;23.198;2023-02-19T09:06:23;95317.72;;;15.14;36.32
63097;BME280;49185;42.320;23.198;2023-02-19T09:08:48;95324.88;;;14.55;37.49
63097;BME280;49185;42.320;23.198;2023-02-19T09:11:14;95315.16;;;15.55;36.70
63097;BME280;49185;42.320;23.198;2023-02-19T09:13:39;95312.28;;;16.08;34.76
63097;BME280;49185;42.320;23.198;2023-02-19T09:16:05;95308.75;;;15.77;33.89
63097;BME280;49185;42.320;23.198;2023-02-19T09:18:31;95308.41;;;15.52;35.77
63097;BME280;49185;42.320;23.198;2023-02-19T09:20:59;95292.31;;;15.37;35.63
63097;BME280;49185;42.320;23.198;2023-02-19T09:23:25;95292.13;;;15.80;34.68
63097;BME280;49185;42.320;23.198;2023-02-19T09:25:56;95278.66;;;15.54;34.59
63097;BME280;49185;42.320;23.198;2023-02-19T09:28:21;95281.88;;;15.41;34.95
63097;BME280;49185;42.320;23.198;2023-02-19T09:30:47;95278.88;;;15.42;35.43
63097;BME280;49185;42.320;23.198;2023-02-19T09:33:12;95271.22;;;15.77;35.25
63097;BME280;49185;42.320;23.198;2023-02-19T09:35:38;95263.63;;;15.63;34.56
63097;BME280;49185;42.320;23.198;2023-02-19T09:38:04;95266.31;;;15.68;34.65
63097;BME280;49185;42.320;23.198;2023-02-19T09:40:29;95256.44;;;15.79;34.27
63097;BME280;49185;42.320;23.198;2023-02-19T09:42:55;95256.41;;;14.65;36.60
63097;BME280;49185;42.320;23.198;2023-02-19T09:45:22;95251.28;;;15.47;38.05
63097;BME280;49185;42.320;23.198;2023-02-19T09:47:52;95248.84;;;15.35;36.63
63097;BME280;49185;42.320;23.198;2023-02-19T09:50:21;95251.34;;;16.03;34.96
63097;BME280;49185;42.320;23.198;2023-02-19T09:52:59;95242.88;;;14.97;35.75
63097;BME280;49185;42.320;23.198;2023-02-19T09:55:35;95235.28;;;14.68;36.43
63097;BME280;49185;42.320;23.198;2023-02-19T09:58:16;95225.28;;;15.68;35.38
63097;BME280;49185;42.320;23.198;2023-02-19T10:00:47;95221.00;;;15.46;36.86
63097;BME280;49185;42.320;23.198;2023-02-19T10:03:22;95205.72;;;15.62;35.93
63097;BME280;49185;42.320;23.198;2023-02-19T10:05:49;95208.38;;;15.52;36.48
63097;BME280;49185;42.320;23.198;2023-02-19T10:08:19;95204.63;;;15.58;35.50
63097;BME280;49185;42.320;23.198;2023-02-19T10:10:45;95202.47;;;15.40;36.32
63097;BME280;49185;42.320;23.198;2023-02-19T10:13:22;95197.34;;;15.23;35.60
63097;BME280;49185;42.320;23.198;2023-02-19T10:15:53;95193.38;;;16.88;32.95
63097;BME280;49185;42.320;23.198;2023-02-19T10:18:26;95181.00;;;17.71;30.87
63097;BME280;49185;42.320;23.198;2023-02-19T10:20:52;95186.13;;;18.02;30.50
63097;BME280;49185;42.320;23.198;2023-02-19T10:23:18;95177.06;;;17.93;29.80
63097;BME280;49185;42.320;23.198;2023-02-19T10:25:47;95172.91;;;17.71;30.23
63097;BME280;49185;42.320;23.198;2023-02-19T10:28:18;95168.88;;;17.00;32.09
63097;BME280;49185;42.320;23.198;2023-02-19T10:30:50;95167.16;;;16.64;34.51
63097;BME280;49185;42.320;23.198;2023-02-19T10:33:15;95161.31;;;16.47;33.53
63097;BME280;49185;42.320;23.198;2023-02-19T10:38:19;95152.25;;;16.22;33.67
63097;BME280;49185;42.320;23.198;2023-02-19T10:40:45;95141.66;;;16.51;34.12
63097;BME280;49185;42.320;23.198;2023-02-19T10:43:29;95141.56;;;16.02;35.04
63097;BME280;49185;42.320;23.198;2023-02-19T10:45:57;95130.81;;;16.07;33.79
63097;BME280;49185;42.320;23.198;2023-02-19T10:48:27;95120.41;;;17.05;33.01
63097;BME280;49185;42.320;23.198;2023-02-19T10:50:57;95111.94;;;17.27;32.08
63097;BME280;49185;42.320;23.198;2023-02-19T10:53:44;95114.16;;;17.20;31.93
63097;BME280;49185;42.320;23.198;2023-02-19T10:56:15;95110.59;;;17.24;31.14
63097;BME280;49185;42.320;23.198;2023-02-19T10:58:46;95099.06;;;17.24;32.07
63097;BME280;49185;42.320;23.198;2023-02-19T11:03:39;95086.44;;;19.26;28.28
63097;BME280;49185;42.320;23.198;2023-02-19T11:06:07;95084.06;;;19.71;27.66
63097;BME280;49185;42.320;23.198;2023-02-19T11:11:07;95074.63;;;18.27;30.46
63097;BME280;49185;42.320;23.198;2023-02-19T11:13:33;95069.03;;;19.84;27.65
63097;BME280;49185;42.320;23.198;2023-02-19T11:15:59;95072.38;;;19.29;27.79
63097;BME280;49185;42.320;23.198;2023-02-19T11:18:30;95066.47;;;19.60;27.04
63097;BME280;49185;42.320;23.198;2023-02-19T11:20:57;95054.59;;;19.28;27.48
63097;BME280;49185;42.320;23.198;2023-02-19T11:23:30;95052.53;;;20.00;26.64
63097;BME280;49185;42.320;23.198;2023-02-19T11:25:59;95050.69;;;18.45;28.44
63097;BME280;49185;42.320;23.198;2023-02-19T11:28:36;95037.47;;;18.05;29.77
63097;BME280;49185;42.320;23.198;2023-02-19T11:34:42;95033.03;;;18.14;29.30
63097;BME280;49185;42.320;23.198;2023-02-19T11:36:42;95028.72;;;20.16;25.54
63097;BME280;49185;42.320;23.198;2023-02-19T11:44:32;95021.00;;;19.95;26.88
63097;BME280;49185;42.320;23.198;2023-02-19T11:47:12;95009.31;;;18.92;27.95
63097;BME280;49185;42.320;23.198;2023-02-19T11:49:57;95006.38;;;19.41;27.11
63097;BME280;49185;42.320;23.198;2023-02-19T11:55:24;95002.41;;;18.86;27.52
63097;BME280;49185;42.320;23.198;2023-02-19T11:58:28;94998.22;;;19.73;26.75
63097;BME280;49185;42.320;23.198;2023-02-19T12:00:54;94990.56;;;19.01;28.84
63097;BME280;49185;42.320;23.198;2023-02-19T12:09:14;94988.56;;;20.73;24.62
63097;BME280;49185;42.320;23.198;2023-02-19T12:17:55;94975.44;;;19.19;26.46
63097;BME280;49185;42.320;23.198;2023-02-19T12:34:34;94931.50;;;18.15;28.66
63097;BME280;49185;42.320;23.198;2023-02-19T12:46:03;94912.00;;;17.37;29.28
63097;BME280;49185;42.320;23.198;2023-02-19T12:48:37;94902.19;;;17.70;29.05
63097;BME280;49185;42.320;23.198;2023-02-19T12:51:11;94896.44;;;17.58;28.83
63097;BME280;49185;42.320;23.198;2023-02-19T12:56:41;94890.88;;;17.73;28.75
63097;BME280;49185;42.320;23.198;2023-02-19T12:59:13;94884.38;;;17.55;29.58
63097;BME280;49185;42.320;23.198;2023-02-19T13:07:15;94863.63;;;17.13;29.04
63097;BME280;49185;42.320;23.198;2023-02-19T13:09:49;94857.25;;;17.52;29.12
63097;BME280;49185;42.320;23.198;2023-02-19T13:12:33;94855.16;;;17.24;29.64
63097;BME280;49185;42.320;23.198;2023-02-19T13:15:13;94852.13;;;17.31;29.27
63097;BME280;49185;42.320;23.198;2023-02-19T13:17:45;94851.22;;;17.17;28.95
63097;BME280;49185;42.320;23.198;2023-02-19T13:20:31;94843.22;;;17.12;29.91
63097;BME280;49185;42.320;23.198;2023-02-19T13:23:22;94843.75;;;17.33;30.33
63097;BME280;49185;42.320;23.198;2023-02-19T13:37:11;94810.88;;;17.17;30.13
63097;BME280;49185;42.320;23.198;2023-02-19T13:39:47;94803.31;;;17.00;29.49
63097;BME280;49185;42.320;23.198;2023-02-19T13:42:26;94803.47;;;16.84;29.88
63097;BME280;49185;42.320;23.198;2023-02-19T13:44:54;94796.97;;;16.61;30.81
63097;BME280;49185;42.320;23.198;2023-02-19T13:50:30;94785.56;;;17.23;29.43
63097;BME280;49185;42.320;23.198;2023-02-19T13:52:58;94790.06;;;16.79;30.44
63097;BME280;49185;42.320;23.198;2023-02-19T13:59:10;94778.28;;;17.61;29.43
63097;BME280;49185;42.320;23.198;2023-02-19T14:01:15;94782.00;;;17.65;28.64
63097;BME280;49185;42.320;23.198;2023-02-19T14:06:09;94781.53;;;17.20;28.93
63097;BME280;49185;42.320;23.198;2023-02-19T14:08:55;94774.84;;;17.37;28.16
63097;BME280;49185;42.320;23.198;2023-02-19T14:14:36;94773.19;;;17.60;27.99
63097;BME280;49185;42.320;23.198;2023-02-19T14:19:52;94765.00;;;17.51;27.85
63097;BME280;49185;42.320;23.198;2023-02-19T14:27:54;94758.72;;;17.56;28.51
63097;BME280;49185;42.320;23.198;2023-02-19T14:30:24;94761.63;;;17.40;28.71
63097;BME280;49185;42.320;23.198;2023-02-19T14:32:50;94756.72;;;17.48;28.74
63097;BME280;49185;42.320;23.198;2023-02-19T14:35:21;94753.06;;;17.57;27.99
63097;BME280;49185;42.320;23.198;2023-02-19T14:37:49;94756.28;;;16.97;30.37
63097;BME280;49185;42.320;23.198;2023-02-19T14:40:37;94746.53;;;17.44;28.32
63097;BME280;49185;42.320;23.198;2023-02-19T14:43:05;94749.16;;;17.50;28.44
63097;BME280;49185;42.320;23.198;2023-02-19T14:45:38;94749.22;;;17.44;29.25
63097;BME280;49185;42.320;23.198;2023-02-19T14:48:18;94753.44;;;16.88;29.74
63097;BME280;49185;42.320;23.198;2023-02-19T14:50:47;94743.81;;;16.58;30.06
63097;BME280;49185;42.320;23.198;2023-02-19T14:53:14;94744.09;;;16.57;30.50
63097;BME280;49185;42.320;23.198;2023-02-19T14:55:41;94741.53;;;16.70;30.61
63097;BME280;49185;42.320;23.198;2023-02-19T14:58:31;94739.13;;;16.45;30.71
63097;BME280;49185;42.320;23.198;2023-02-19T15:00:57;94738.38;;;16.39;30.71
63097;BME280;49185;42.320;23.198;2023-02-19T15:03:33;94736.56;;;16.05;32.10
63097;BME280;49185;42.320;23.198;2023-02-19T15:06:09;94737.09;;;15.73;32.58